createdAt,value
2023-01-23T00:01:20.232Z,14.25
2023-01-23T00:03:22.166Z,15.35
2023-01-23T00:05:28.076Z,17.05
2023-01-23T00:07:30.001Z,15.98
2023-01-23T00:09:34.023Z,15.07
2023-01-23T00:11:38.102Z,16.65
2023-01-23T00:13:40.310Z,16.90
2023-01-23T00:15:44.319Z,17.10
2023-01-23T00:17:46.223Z,16.25
2023-01-23T00:19:48.108Z,16.85
2023-01-23T00:21:49.997Z,16.88
2023-01-23T00:23:57.251Z,18.23
2023-01-23T00:26:07.605Z,17.98
2023-01-23T00:28:09.485Z,19.55
2023-01-23T00:30:19.903Z,15.18
2023-01-23T00:32:22.066Z,16.38
2023-01-23T00:34:29.887Z,16.38
2023-01-23T00:36:40.185Z,18.20
2023-01-23T00:38:43.312Z,17.50
2023-01-23T00:40:47.137Z,16.85
2023-01-23T00:42:49.308Z,15.75
2023-01-23T00:44:53.180Z,17.77
2023-01-23T00:46:58.789Z,16.48
2023-01-23T00:49:07.283Z,15.45
2023-01-23T00:51:22.681Z,15.88
2023-01-23T00:53:31.778Z,17.48
2023-01-23T00:55:50.099Z,16.20
2023-01-23T00:57:52.019Z,16.63
2023-01-23T00:59:53.929Z,14.68
2023-01-23T01:02:03.227Z,15.25
2023-01-23T01:04:05.329Z,16.75
2023-01-23T01:06:11.172Z,13.80
2023-01-23T01:08:13.267Z,14.85
2023-01-23T01:10:17.497Z,17.45
2023-01-23T01:12:19.596Z,15.80
2023-01-23T01:14:30.586Z,23.05
2023-01-23T01:16:34.558Z,16.77
2023-01-23T01:18:38.340Z,19.17
2023-01-23T01:20:42.517Z,19.05
2023-01-23T01:22:44.471Z,19.08
2023-01-23T01:24:46.604Z,15.23
2023-01-23T01:26:50.433Z,17.42
2023-01-23T01:28:56.489Z,16.70
2023-01-23T01:31:07.474Z,15.98
2023-01-23T01:33:09.540Z,16.40
2023-01-23T01:35:12.190Z,16.58
2023-01-23T01:37:15.034Z,17.17
2023-01-23T01:39:20.951Z,17.17
2023-01-23T01:41:26.052Z,17.35
2023-01-23T01:43:28.637Z,16.30
2023-01-23T01:46:07.803Z,14.52
2023-01-23T01:48:13.179Z,17.15
2023-01-23T01:50:15.245Z,16.40
2023-01-23T01:52:21.281Z,14.85
2023-01-23T01:54:43.851Z,17.67
2023-01-23T01:56:52.065Z,15.75
2023-01-23T01:59:20.280Z,13.98
2023-01-23T02:01:24.461Z,17.67
2023-01-23T02:03:30.884Z,18.02
2023-01-23T02:05:47.735Z,17.42
2023-01-23T02:08:11.144Z,16.83
2023-01-23T02:10:14.485Z,15.00
2023-01-23T02:12:16.400Z,17.40
2023-01-23T02:14:26.268Z,20.45
2023-01-23T02:16:34.108Z,15.38
2023-01-23T02:18:39.180Z,19.13
2023-01-23T02:20:42.289Z,15.95
2023-01-23T02:23:18.293Z,16.88
2023-01-23T02:26:11.673Z,15.40
2023-01-23T02:28:17.179Z,18.67
2023-01-23T02:30:21.547Z,16.67
2023-01-23T02:32:29.627Z,15.18
2023-01-23T02:34:32.455Z,16.13
2023-01-23T02:36:35.564Z,15.75
2023-01-23T02:38:54.825Z,16.25
2023-01-23T02:41:21.024Z,16.10
2023-01-23T02:43:28.404Z,16.02
2023-01-23T02:45:41.159Z,15.95
2023-01-23T02:47:43.020Z,17.85
2023-01-23T02:49:45.201Z,16.25
2023-01-23T02:51:49.659Z,15.40
2023-01-23T02:53:51.663Z,17.08
2023-01-23T02:55:54.065Z,16.65
2023-01-23T02:58:18.342Z,16.55
2023-01-23T03:00:20.918Z,17.75
2023-01-23T03:02:28.260Z,15.27
2023-01-23T03:04:39.919Z,16.50
2023-01-23T03:06:46.008Z,18.42
2023-01-23T03:08:47.943Z,20.98
2023-01-23T03:10:53.895Z,19.10
2023-01-23T03:13:07.439Z,17.85
2023-01-23T03:15:11.828Z,18.13
2023-01-23T03:17:15.040Z,17.08
2023-01-23T03:19:18.788Z,17.45
2023-01-23T03:21:32.900Z,19.67
2023-01-23T03:23:44.824Z,18.70
2023-01-23T03:25:49.320Z,17.38
2023-01-23T03:27:54.295Z,20.20
2023-01-23T03:30:16.278Z,18.50
2023-01-23T03:34:22.425Z,19.70
2023-01-23T03:36:37.556Z,19.48
2023-01-23T03:39:05.018Z,19.20
2023-01-23T03:41:27.091Z,20.98
2023-01-23T03:43:33.363Z,21.80
2023-01-23T03:45:45.437Z,18.45
2023-01-23T03:47:48.399Z,19.85
2023-01-23T03:49:53.119Z,20.70
2023-01-23T03:51:57.044Z,22.40
2023-01-23T03:54:11.705Z,20.75
2023-01-23T03:56:16.861Z,20.63
2023-01-23T03:58:25.564Z,19.70
2023-01-23T04:00:30.571Z,18.85
2023-01-23T04:02:34.480Z,19.63
2023-01-23T04:04:37.383Z,18.98
2023-01-23T04:06:49.418Z,23.52
2023-01-23T04:08:52.385Z,20.70
2023-01-23T04:11:09.217Z,20.92
2023-01-23T04:13:15.257Z,20.60
2023-01-23T04:15:17.328Z,21.17
2023-01-23T04:17:21.250Z,21.45
2023-01-23T04:19:23.171Z,18.35
2023-01-23T04:21:29.130Z,19.88
2023-01-23T04:23:33.210Z,20.77
2023-01-23T04:25:42.908Z,19.40
2023-01-23T04:27:58.148Z,18.00
2023-01-23T04:30:01.015Z,21.02
2023-01-23T04:32:03.177Z,18.25
2023-01-23T04:34:16.188Z,18.90
2023-01-23T04:36:19.077Z,19.25
2023-01-23T04:38:25.934Z,19.90
2023-01-23T04:40:27.961Z,19.98
2023-01-23T04:42:33.807Z,18.17
2023-01-23T04:44:36.702Z,20.33
2023-01-23T04:46:50.063Z,18.90
2023-01-23T04:48:56.093Z,19.92
2023-01-23T04:50:57.958Z,22.13
2023-01-23T04:52:59.983Z,20.80
2023-01-23T04:55:02.065Z,21.05
2023-01-23T04:57:04.023Z,19.38
2023-01-23T04:59:06.745Z,18.35
2023-01-23T05:01:10.715Z,20.10
2023-01-23T05:03:17.448Z,19.40
2023-01-23T05:05:21.379Z,21.98
2023-01-23T05:07:33.448Z,19.17
2023-01-23T05:09:35.319Z,20.13
2023-01-23T05:11:37.379Z,17.08
2023-01-23T05:13:40.339Z,20.20
2023-01-23T05:15:43.443Z,21.65
2023-01-23T05:17:45.327Z,19.55
2023-01-23T05:19:47.247Z,20.73
2023-01-23T05:21:50.348Z,18.63
2023-01-23T05:23:53.357Z,20.63
2023-01-23T05:25:59.262Z,19.27
2023-01-23T05:28:03.135Z,24.10
2023-01-23T05:30:10.751Z,18.70
2023-01-23T05:32:22.882Z,18.60
2023-01-23T05:34:25.860Z,19.65
2023-01-23T05:36:27.716Z,19.02
2023-01-23T05:38:29.737Z,18.67
2023-01-23T05:40:33.814Z,20.65
2023-01-23T05:42:41.629Z,16.77
2023-01-23T05:44:43.539Z,18.25
2023-01-23T05:46:45.469Z,17.05
2023-01-23T05:48:54.704Z,20.30
2023-01-23T05:50:58.610Z,18.30
2023-01-23T05:53:12.788Z,18.17
2023-01-23T05:55:26.065Z,16.70
2023-01-23T05:57:35.416Z,17.80
2023-01-23T05:59:37.268Z,21.45
2023-01-23T06:01:45.380Z,16.88
2023-01-23T06:03:48.176Z,15.27
2023-01-23T06:06:02.367Z,16.33
2023-01-23T06:08:20.444Z,18.70
2023-01-23T06:10:23.398Z,17.52
2023-01-23T06:12:31.538Z,16.98
2023-01-23T06:14:33.481Z,17.35
2023-01-23T06:16:35.604Z,15.55
2023-01-23T06:18:43.815Z,17.67
2023-01-23T06:21:19.641Z,18.17
2023-01-23T06:23:22.550Z,17.88
2023-01-23T06:25:24.510Z,20.98
2023-01-23T06:27:30.490Z,17.00
2023-01-23T06:29:32.637Z,16.73
2023-01-23T06:31:35.848Z,16.25
2023-01-23T06:33:43.670Z,17.27
2023-01-23T06:36:06.164Z,16.73
2023-01-23T06:38:13.153Z,22.30
2023-01-23T06:40:15.656Z,18.27
2023-01-23T06:42:17.717Z,17.95
2023-01-23T06:44:27.633Z,16.83
2023-01-23T06:46:36.203Z,17.35
2023-01-23T06:48:39.289Z,16.83
2023-01-23T06:50:42.696Z,18.85
2023-01-23T06:52:44.593Z,16.80
2023-01-23T06:54:52.378Z,16.02
2023-01-23T06:56:55.533Z,18.98
2023-01-23T06:59:03.609Z,18.23
2023-01-23T07:01:10.671Z,17.48
2023-01-23T07:03:15.322Z,21.08
2023-01-23T07:05:18.352Z,16.55
2023-01-23T07:07:20.410Z,17.23
2023-01-23T07:09:24.401Z,15.15
2023-01-23T07:11:26.356Z,16.45
2023-01-23T07:13:29.712Z,15.93
2023-01-23T07:15:33.808Z,18.35
2023-01-23T07:17:36.771Z,17.98
2023-01-23T07:19:38.800Z,15.55
2023-01-23T07:21:49.486Z,19.38
2023-01-23T07:23:53.601Z,17.20
2023-01-23T07:26:00.613Z,15.77
2023-01-23T07:28:04.100Z,19.70
2023-01-23T07:30:06.552Z,17.40
2023-01-23T07:32:18.612Z,17.35
2023-01-23T07:34:26.712Z,16.55
2023-01-23T07:36:29.980Z,17.17
2023-01-23T07:38:35.292Z,18.80
2023-01-23T07:40:39.254Z,18.73
2023-01-23T07:42:43.430Z,15.02
2023-01-23T07:44:45.393Z,17.77
2023-01-23T07:46:53.553Z,21.70
2023-01-23T07:49:02.287Z,16.05
2023-01-23T07:51:05.954Z,15.57
2023-01-23T07:53:08.066Z,17.00
2023-01-23T07:55:16.928Z,16.45
2023-01-23T07:57:22.316Z,17.30
2023-01-23T07:59:24.309Z,16.08
2023-01-23T08:01:26.675Z,19.77
2023-01-23T08:03:29.301Z,16.52
2023-01-23T08:05:33.253Z,16.85
2023-01-23T08:07:36.268Z,21.48
2023-01-23T08:09:40.615Z,20.40
2023-01-23T08:11:42.647Z,18.88
2023-01-23T08:13:48.678Z,21.08
2023-01-23T08:15:53.569Z,18.58
2023-01-23T08:17:55.583Z,21.88
2023-01-23T08:19:57.571Z,18.63
2023-01-23T08:21:59.552Z,19.65
2023-01-23T08:24:05.078Z,19.10
2023-01-23T08:26:11.879Z,16.30
2023-01-23T08:28:14.796Z,18.40
2023-01-23T08:30:17.202Z,23.10
2023-01-23T08:32:19.351Z,22.50
2023-01-23T08:34:24.210Z,19.48
2023-01-23T08:36:26.210Z,21.00
2023-01-23T08:38:29.456Z,17.83
2023-01-23T08:40:31.830Z,19.98
2023-01-23T08:42:33.794Z,22.38
2023-01-23T08:44:35.797Z,21.77
2023-01-23T08:46:45.369Z,18.27
2023-01-23T08:48:48.335Z,18.48
2023-01-23T08:51:02.587Z,19.90
2023-01-23T08:53:05.112Z,19.08
2023-01-23T08:55:07.549Z,21.23
2023-01-23T08:57:09.531Z,20.80
2023-01-23T08:59:12.128Z,19.55
2023-01-23T09:01:25.536Z,20.30
2023-01-23T09:03:28.735Z,19.55
2023-01-23T09:05:32.580Z,19.77
2023-01-23T09:07:37.087Z,22.17
2023-01-23T09:09:39.525Z,18.83
2023-01-23T09:11:41.834Z,18.83
2023-01-23T09:13:43.908Z,18.63
2023-01-23T09:15:50.934Z,21.83
2023-01-23T09:17:53.840Z,19.88
2023-01-23T09:19:58.340Z,18.95
2023-01-23T09:22:00.528Z,18.83
2023-01-23T09:24:02.566Z,22.95
2023-01-23T09:26:06.337Z,22.95
2023-01-23T09:28:08.365Z,18.40
2023-01-23T09:30:11.898Z,17.88
2023-01-23T09:32:13.792Z,22.30
2023-01-23T09:34:17.390Z,19.33
2023-01-23T09:36:20.588Z,20.08
2023-01-23T09:38:30.317Z,19.67
2023-01-23T09:40:44.036Z,18.63
2023-01-23T09:42:47.231Z,17.98
2023-01-23T09:44:54.776Z,19.23
2023-01-23T09:47:10.511Z,17.42
2023-01-23T09:49:17.532Z,17.48
2023-01-23T09:51:45.798Z,19.75
2023-01-23T09:53:47.981Z,19.63
2023-01-23T09:55:58.240Z,20.08
2023-01-23T09:58:04.351Z,20.40
2023-01-23T10:00:27.809Z,19.83
2023-01-23T10:02:31.028Z,19.88
2023-01-23T10:04:34.076Z,20.65
2023-01-23T10:06:48.517Z,20.02
2023-01-23T10:09:29.780Z,22.27
2023-01-23T10:12:08.874Z,18.02
2023-01-23T10:14:52.200Z,19.50
2023-01-23T10:17:15.102Z,23.23
2023-01-23T10:19:17.034Z,22.98
2023-01-23T10:21:32.205Z,20.65
2023-01-23T10:24:23.728Z,18.77
2023-01-23T10:26:32.300Z,20.10
2023-01-23T10:28:39.480Z,18.83
2023-01-23T10:30:42.557Z,19.50
2023-01-23T10:32:56.237Z,17.73
2023-01-23T10:35:12.790Z,19.38
2023-01-23T10:37:21.987Z,18.92
2023-01-23T10:39:31.783Z,23.08
2023-01-23T10:41:37.691Z,18.10
2023-01-23T10:43:43.468Z,19.90
2023-01-23T10:45:47.494Z,19.95
2023-01-23T10:47:54.548Z,19.17
2023-01-23T10:49:57.229Z,19.05
2023-01-23T10:52:00.178Z,19.25
2023-01-23T10:54:31.903Z,19.50
2023-01-23T10:56:37.987Z,20.58
2023-01-23T10:58:41.404Z,23.52
2023-01-23T11:00:47.302Z,21.58
2023-01-23T11:02:49.235Z,21.05
2023-01-23T11:04:52.676Z,20.13
2023-01-23T11:07:14.863Z,19.60
2023-01-23T11:09:21.362Z,17.60
2023-01-23T11:11:29.779Z,19.95
2023-01-23T11:13:31.824Z,17.55
2023-01-23T11:15:41.060Z,22.63
2023-01-23T11:17:44.263Z,21.05
2023-01-23T11:19:49.063Z,23.85
2023-01-23T11:21:53.203Z,27.90
2023-01-23T11:24:18.818Z,27.85
2023-01-23T11:26:34.634Z,24.90
2023-01-23T11:28:57.816Z,26.70
2023-01-23T11:31:16.036Z,24.60
2023-01-23T11:33:27.225Z,25.13
2023-01-23T11:36:07.107Z,25.63
2023-01-23T11:38:27.278Z,26.02
2023-01-23T11:40:33.113Z,25.45
2023-01-23T11:42:40.396Z,30.00
2023-01-23T11:44:46.333Z,21.13
2023-01-23T11:47:16.150Z,23.45
2023-01-23T11:49:29.216Z,21.40
2023-01-23T11:52:02.827Z,22.65
2023-01-23T11:54:31.599Z,19.40
2023-01-23T11:56:44.136Z,22.60
2023-01-23T11:59:14.739Z,22.50
2023-01-23T12:01:52.127Z,22.20
2023-01-23T12:04:20.808Z,26.42
2023-01-23T12:06:41.511Z,26.50
2023-01-23T12:08:56.551Z,23.65
2023-01-23T12:11:16.665Z,20.90
2023-01-23T12:13:48.334Z,21.92
2023-01-23T12:16:02.182Z,22.38
2023-01-23T12:18:22.912Z,22.55
2023-01-23T12:20:48.334Z,26.33
2023-01-23T12:23:18.696Z,22.92
2023-01-23T12:25:44.093Z,25.15
2023-01-23T12:27:48.706Z,23.55
2023-01-23T12:30:29.153Z,27.48
2023-01-23T12:33:19.210Z,23.80
2023-01-23T12:35:43.111Z,22.25
2023-01-23T12:38:11.797Z,20.75
2023-01-23T12:40:32.391Z,21.38
2023-01-23T12:42:49.409Z,22.83
2023-01-23T12:45:12.196Z,23.73
2023-01-23T12:47:20.277Z,22.23
2023-01-23T12:49:30.855Z,23.25
2023-01-23T12:51:39.758Z,24.27
2023-01-23T12:53:45.580Z,21.25
2023-01-23T12:56:10.968Z,25.33
2023-01-23T12:58:16.870Z,20.52
2023-01-23T13:00:43.216Z,20.23
2023-01-23T13:03:03.614Z,21.42
2023-01-23T13:05:55.169Z,24.58
2023-01-23T13:08:20.105Z,20.30
2023-01-23T13:11:11.785Z,22.00
2023-01-23T13:13:14.246Z,20.42
2023-01-23T13:15:38.848Z,24.02
2023-01-23T13:17:49.872Z,19.55
2023-01-23T13:20:10.219Z,19.48
2023-01-23T13:22:27.703Z,18.02
2023-01-23T13:24:59.928Z,21.73
2023-01-23T13:27:35.752Z,20.90
2023-01-23T13:29:51.003Z,21.90
2023-01-23T13:32:21.534Z,19.90
2023-01-23T13:34:23.533Z,17.77
2023-01-23T13:36:31.109Z,21.25
2023-01-23T13:38:39.712Z,20.40
2023-01-23T13:41:02.690Z,18.20
2023-01-23T13:43:44.460Z,20.55
2023-01-23T13:45:48.056Z,16.65
2023-01-23T14:20:46.528Z,15.95
2023-01-23T14:22:54.098Z,14.82
2023-01-23T14:24:56.891Z,12.82
2023-01-23T14:27:09.440Z,15.93
2023-01-23T14:29:24.313Z,15.05
2023-01-23T14:31:32.809Z,14.73
2023-01-23T14:33:45.415Z,16.48
2023-01-23T14:35:48.222Z,13.23
2023-01-23T14:37:52.698Z,15.18
2023-01-23T14:40:11.701Z,14.32
2023-01-23T14:42:35.579Z,11.60
2023-01-23T14:44:44.034Z,11.93
2023-01-23T14:46:46.993Z,12.48
2023-01-23T14:48:55.386Z,13.15
2023-01-23T14:51:25.111Z,13.40
2023-01-23T14:53:28.167Z,15.95
2023-01-23T14:55:32.024Z,15.70
2023-01-23T14:57:36.499Z,15.85
2023-01-23T14:59:41.627Z,13.27
2023-01-23T15:01:43.660Z,13.32
2023-01-23T15:03:57.588Z,14.63
2023-01-23T15:06:03.683Z,14.60
2023-01-23T15:08:30.886Z,14.18
2023-01-23T15:10:43.878Z,13.70
2023-01-23T15:12:56.767Z,13.40
2023-01-23T15:15:00.480Z,13.68
2023-01-23T15:17:05.549Z,13.10
2023-01-23T15:19:24.602Z,12.55
2023-01-23T15:21:33.640Z,12.95
2023-01-23T15:23:40.746Z,13.77
2023-01-23T15:25:46.343Z,14.60
2023-01-23T15:27:52.883Z,13.85
2023-01-23T15:30:33.377Z,15.07
2023-01-23T15:32:41.119Z,16.05
2023-01-23T15:34:54.401Z,12.18
2023-01-23T15:37:12.694Z,14.05
2023-01-23T15:39:23.900Z,13.48
2023-01-23T15:41:48.041Z,13.10
2023-01-23T15:43:51.062Z,13.02
2023-01-23T15:45:54.209Z,13.20
2023-01-23T15:47:56.160Z,15.63
2023-01-23T15:50:03.319Z,14.95
2023-01-23T15:52:25.660Z,16.35
2023-01-23T15:54:37.841Z,16.77
2023-01-23T15:56:48.688Z,15.93
2023-01-23T15:59:02.681Z,16.67
2023-01-23T16:03:09.166Z,15.02
2023-01-23T16:05:12.284Z,17.17
2023-01-23T16:07:27.213Z,16.40
2023-01-23T16:09:34.278Z,14.40
2023-01-23T16:11:42.320Z,14.98
2023-01-23T16:13:44.953Z,16.83
2023-01-23T16:15:58.175Z,14.77
2023-01-23T16:18:04.789Z,16.00
2023-01-23T16:20:23.951Z,16.88
2023-01-23T16:22:29.997Z,16.05
2023-01-23T16:24:39.820Z,16.30
2023-01-23T16:26:42.504Z,16.17
2023-01-23T16:28:44.613Z,15.82
2023-01-23T16:30:55.738Z,19.60
2023-01-23T16:32:57.987Z,18.73
2023-01-23T16:35:02.207Z,17.83
2023-01-23T16:37:04.431Z,18.02
2023-01-23T16:39:07.271Z,16.92
2023-01-23T16:41:11.652Z,19.98
2023-01-23T16:43:14.755Z,18.20
2023-01-23T16:45:32.806Z,17.92
2023-01-23T16:47:34.956Z,18.25
2023-01-23T16:49:52.195Z,18.08
2023-01-23T16:52:00.812Z,18.88
2023-01-23T16:54:14.261Z,19.63
2023-01-23T16:56:53.843Z,20.35
2023-01-23T16:58:59.306Z,19.20
2023-01-23T17:01:08.848Z,19.95
2023-01-23T17:03:24.375Z,21.65
2023-01-23T17:05:26.399Z,20.40
2023-01-23T17:07:30.338Z,24.75
2023-01-23T17:09:32.622Z,24.38
2023-01-23T17:11:40.396Z,24.15
2023-01-23T17:13:44.787Z,24.60
2023-01-23T17:15:54.177Z,25.85
2023-01-23T17:18:00.710Z,29.48
2023-01-23T17:20:05.962Z,28.40
2023-01-23T17:22:24.217Z,21.33
2023-01-23T17:24:26.768Z,23.75
2023-01-23T17:26:29.123Z,19.83
2023-01-23T17:28:31.921Z,19.98
2023-01-23T17:30:36.516Z,19.92
2023-01-23T17:32:39.479Z,20.42
2023-01-23T17:34:49.832Z,20.95
2023-01-23T17:36:54.561Z,19.58
2023-01-23T17:39:00.950Z,22.25
2023-01-23T17:41:06.688Z,22.45
2023-01-23T17:43:12.070Z,20.48
2023-01-23T17:45:17.082Z,22.33
2023-01-23T17:47:19.937Z,20.90
2023-01-23T17:49:29.871Z,20.45
2023-01-23T17:51:33.123Z,19.00
2023-01-23T17:53:36.286Z,21.50
2023-01-23T17:55:41.452Z,21.15
2023-01-23T17:57:51.099Z,22.10
2023-01-23T17:59:55.641Z,20.52
2023-01-23T18:02:00.989Z,19.42
2023-01-23T18:04:16.467Z,20.55
2023-01-23T18:06:19.964Z,20.30
2023-01-23T18:08:23.653Z,21.48
2023-01-23T18:10:29.600Z,20.35
2023-01-23T18:12:52.194Z,19.13
2023-01-23T18:15:29.510Z,20.65
2023-01-23T18:18:17.295Z,21.40
2023-01-23T18:20:23.391Z,21.55
2023-01-23T18:22:27.176Z,20.05
2023-01-23T18:24:33.303Z,19.63
2023-01-23T18:26:54.763Z,22.63
2023-01-23T18:29:15.523Z,20.98
2023-01-23T18:31:37.073Z,22.92
2023-01-23T18:33:56.626Z,21.35
2023-01-23T18:36:34.102Z,23.15
2023-01-23T18:38:59.481Z,21.77
2023-01-23T18:41:25.000Z,25.05
2023-01-23T18:43:40.668Z,24.63
2023-01-23T18:46:01.980Z,24.30
2023-01-23T18:48:23.956Z,27.27
2023-01-23T18:50:28.121Z,56.42
2023-01-23T18:52:40.718Z,55.50
2023-01-23T18:55:03.736Z,39.70
2023-01-23T18:57:32.877Z,27.10
2023-01-23T19:00:09.679Z,24.73
2023-01-23T19:02:23.191Z,24.33
2023-01-23T19:04:54.350Z,23.08
2023-01-23T19:06:59.619Z,23.60
2023-01-23T19:09:02.749Z,21.98
2023-01-23T19:11:38.294Z,25.83
2023-01-23T19:14:16.645Z,25.45
2023-01-23T19:16:33.799Z,25.80
2023-01-23T19:18:45.600Z,24.23
2023-01-23T19:21:27.481Z,24.95
2023-01-23T19:23:46.959Z,26.58
2023-01-23T19:25:51.212Z,26.63
2023-01-23T19:27:56.652Z,25.25
2023-01-23T19:30:01.320Z,26.95
2023-01-23T19:32:05.750Z,25.70
2023-01-23T19:34:11.784Z,26.00
2023-01-23T19:36:15.046Z,24.80
2023-01-23T19:38:18.288Z,25.40
2023-01-23T19:40:21.292Z,24.95
2023-01-23T19:42:23.962Z,24.15
2023-01-23T19:44:29.110Z,24.95
2023-01-23T19:46:34.422Z,24.13
2023-01-23T19:48:37.275Z,25.13
2023-01-23T19:50:41.492Z,23.67
2023-01-23T19:52:46.923Z,24.40
2023-01-23T19:54:51.036Z,24.05
2023-01-23T19:56:56.193Z,25.80
2023-01-23T19:59:00.603Z,24.10
2023-01-23T20:01:04.379Z,23.15
2023-01-23T20:03:06.651Z,25.98
2023-01-23T20:05:10.046Z,22.45
2023-01-23T20:07:12.744Z,22.05
2023-01-23T20:09:16.228Z,23.65
2023-01-23T20:11:18.913Z,24.45
2023-01-23T20:13:21.534Z,27.55
2023-01-23T20:15:26.669Z,24.27
2023-01-23T20:17:29.807Z,24.98
2023-01-23T20:19:34.009Z,28.38
2023-01-23T20:21:37.951Z,26.00
2023-01-23T20:23:41.206Z,24.52
2023-01-23T20:26:00.152Z,26.83
2023-01-23T20:28:03.802Z,25.58
2023-01-23T20:30:11.803Z,26.98
2023-01-23T20:32:14.648Z,25.55
2023-01-23T20:34:18.809Z,25.88
2023-01-23T20:36:21.747Z,26.75
2023-01-23T20:38:25.409Z,27.40
2023-01-23T20:40:34.124Z,24.70
2023-01-23T20:42:38.603Z,25.80
2023-01-23T20:44:42.111Z,27.95
2023-01-23T20:46:52.067Z,28.60
2023-01-23T20:49:02.108Z,25.25
2023-01-23T20:51:12.920Z,30.83
2023-01-23T20:53:32.341Z,28.33
2023-01-23T20:55:43.748Z,26.48
2023-01-23T20:58:07.625Z,30.42
2023-01-23T21:00:13.696Z,28.98
2023-01-23T21:02:23.900Z,29.10
2023-01-23T21:04:31.849Z,32.33
2023-01-23T21:06:35.047Z,27.67
2023-01-23T21:08:42.048Z,29.70
2023-01-23T21:10:46.407Z,37.45
2023-01-23T21:12:50.596Z,29.17
2023-01-23T21:15:06.260Z,30.98
2023-01-23T21:17:15.721Z,32.28
2023-01-23T21:19:20.342Z,32.97
2023-01-23T21:21:31.999Z,37.92
2023-01-23T21:23:37.159Z,34.33
2023-01-23T21:25:39.352Z,38.75
2023-01-23T21:27:42.628Z,36.25
2023-01-23T21:29:44.709Z,35.55
2023-01-23T21:31:51.769Z,32.17
2023-01-23T21:34:15.440Z,34.08
2023-01-23T21:38:43.345Z,39.33
2023-01-23T21:40:45.498Z,34.08
2023-01-23T21:42:50.695Z,34.97
2023-01-23T21:44:57.312Z,39.55
2023-01-23T21:46:59.613Z,37.58
2023-01-23T21:49:06.798Z,35.92
2023-01-23T21:51:18.563Z,34.70
2023-01-23T21:55:32.426Z,33.78
2023-01-23T21:57:34.330Z,34.47
2023-01-23T21:59:46.812Z,34.67
2023-01-23T22:02:01.775Z,36.85
2023-01-23T22:04:06.577Z,38.70
2023-01-23T22:06:13.657Z,35.58
2023-01-23T22:08:28.835Z,38.22
2023-01-23T22:10:43.780Z,39.38
2023-01-23T22:12:46.807Z,39.72
2023-01-23T22:14:52.785Z,37.72
2023-01-23T22:16:59.947Z,37.63
2023-01-23T22:19:03.710Z,38.78
2023-01-23T22:21:08.117Z,37.75
2023-01-23T22:23:13.255Z,38.55
2023-01-23T22:25:24.109Z,38.13
2023-01-23T22:27:26.132Z,38.33
2023-01-23T22:29:34.106Z,36.85
2023-01-23T22:31:39.054Z,37.10
2023-01-23T22:33:47.706Z,36.15
2023-01-23T22:35:50.044Z,34.85
2023-01-23T22:37:57.850Z,40.25
2023-01-23T22:40:27.051Z,41.05
2023-01-23T22:42:33.054Z,38.78
2023-01-23T22:44:37.838Z,36.08
2023-01-23T22:46:39.951Z,35.72
2023-01-23T22:48:48.044Z,37.42
2023-01-23T22:50:52.054Z,40.00
2023-01-23T22:53:01.996Z,39.22
2023-01-23T22:55:16.657Z,39.40
2023-01-23T22:57:21.903Z,38.10
2023-01-23T22:59:24.857Z,39.83
2023-01-23T23:01:30.559Z,35.60
2023-01-23T23:03:42.967Z,39.65
2023-01-23T23:05:45.133Z,36.25
2023-01-23T23:07:47.072Z,37.10
2023-01-23T23:09:49.084Z,34.67
2023-01-23T23:11:55.042Z,38.08
2023-01-23T23:13:58.115Z,33.72
2023-01-23T23:16:11.575Z,36.08
2023-01-23T23:18:13.593Z,40.60
2023-01-23T23:20:15.809Z,36.70
2023-01-23T23:22:19.824Z,36.53
2023-01-23T23:24:23.042Z,37.65
2023-01-23T23:26:31.832Z,41.53
2023-01-23T23:28:35.257Z,39.47
2023-01-23T23:30:37.192Z,37.10
2023-01-23T23:32:40.260Z,40.22
2023-01-23T23:34:48.335Z,40.03
2023-01-23T23:36:50.286Z,35.65
2023-01-23T23:38:52.206Z,36.47
2023-01-23T23:41:12.383Z,33.63
2023-01-23T23:43:19.903Z,34.72
2023-01-23T23:45:32.157Z,37.50
2023-01-23T23:47:34.090Z,33.92
2023-01-23T23:49:43.053Z,37.95
2023-01-23T23:52:03.156Z,33.97
2023-01-23T23:54:13.852Z,37.95
2023-01-23T23:56:26.509Z,36.53
2023-01-23T23:58:40.795Z,42.10
